Huvudsida
METAR-TAF:

METAR-TAF

Flygplatser :

Odense, Danmark

Hans Christian Andersens flygplats

latitud: 55-29N, longitud: 010-20E, höjd: 17 m

Aktuellt väderrapport

Denna rapport gjordes för 41 minuter sedan, klockan 10:20 UTC
Vind 9 kt från väst/sydväst
Temperatur 1°C
Fuktighet 93%
Tryck 989 hPa
Sikt 10 km eller mer
Spridda moln på en höjd av 700 ft
Mulet på en höjd av 900 ft

METAR: EKOD 171020Z 25009KT 9999 SCT007 OVC009 01/00 Q0989 R06/320095

Tid: 12:01 (11:01 UTC)

Väderprognos

Denna rapport gjordes för 2 timmar och 4 minuter sedan, klockan 08:57 UTC
Prognos gäller från 17 kl. 09 UTC till 17 kl. 17 UTC
Vind 8 kt från sydväst
Sikt 10 km eller mer
Brutna moln på en höjd av 400 ft
Blir
från 17 kl. 09 UTC till 17 kl. 11 UTC
Brutna moln på en höjd av 1500 ft
Temporärt
från 17 kl. 11 UTC till 17 kl. 13 UTC
Brutna moln på en höjd av 800 ft

TAF: EKOD 170857Z 1709/1717 22008KT 9999 BKN004 BECMG 1709/1711 BKN015 TEMPO 1711/1713 BKN008

Aktuella väderrapporter och prognoser från 4000 flygplatser (METAR- och TAF-rapporter).

De tillgängliga stationerna syns som gula och röda prickar på kartan.

För musen över prickarna för att se namnen på stationerna.

Klicka sedan för att få väderrapporter och prognoser.

För att ändra kartan: Klicka på de gröna knapparna med ett svart kors på för att zooma in; den gröna knappen med ett streck på för att zooma ut; eller på de gröna pilarna för angränsande kartor.


METAR-TAF: